Time;durP1;ratioP1;P1;durP2;ratioP2;P2;SDS_P1;SDS_P2;PMS_P1;PMS_P2;Temp;Humidity;BMP_temperature;BMP_pressure;BME280_temperature;BME280_humidity;BME280_pressure;Samples;Min_cycle;Max_cycle;Signal;HPM_P1;HPM_P2
2021/08/04 00:01:09;;;;;;;6.47;4.60;;;;;;;36.43;20.04;94410.31;5014584;28;20046;-68
2021/08/04 00:03:36;;;;;;;7.40;4.68;;;;;;;36.74;20.07;94418.34;5006153;28;20058;-64
2021/08/04 00:06:03;;;;;;;8.45;4.80;;;;;;;36.36;20.20;94409.81;5015224;28;20391;-64
2021/08/04 00:08:30;;;;;;;7.00;4.80;;;;;;;36.63;20.04;94420.72;5001009;28;20050;-67
2021/08/04 00:10:57;;;;;;;6.18;4.47;;;;;;;36.62;20.11;94426.63;5014730;28;20042;-61
2021/08/04 00:13:24;;;;;;;5.43;4.10;;;;;;;36.61;19.87;94425.88;5014870;28;20441;-65
2021/08/04 00:15:52;;;;;;;8.07;4.95;;;;;;;36.64;19.91;94429.66;5006109;28;20050;-66
2021/08/04 00:18:19;;;;;;;7.43;4.88;;;;;;;36.68;19.21;94436.47;4998921;28;20050;-66
2021/08/04 00:20:48;;;;;;;6.60;4.50;;;;;;;36.83;19.03;94436.66;5014422;28;20046;-64
2021/08/04 00:23:15;;;;;;;6.57;4.65;;;;;;;36.66;18.99;94438.13;5013046;28;20046;-61
2021/08/04 00:25:42;;;;;;;7.82;4.63;;;;;;;36.82;18.91;94445.28;5010598;28;20060;-62
2021/08/04 00:28:09;;;;;;;7.82;4.78;;;;;;;36.45;19.58;94456.13;5021328;28;20042;-62
2021/08/04 00:30:36;;;;;;;6.03;4.53;;;;;;;36.65;19.28;94444.78;4997555;28;20046;-60
2021/08/04 00:33:03;;;;;;;6.45;4.18;;;;;;;36.57;19.55;94447.06;4978537;28;20050;-64
2021/08/04 00:35:30;;;;;;;5.90;4.60;;;;;;;36.84;19.51;94448.31;5014789;28;20049;-65
2021/08/04 00:37:58;;;;;;;10.60;4.60;;;;;;;36.85;19.42;94441.66;4995519;28;20046;-64
2021/08/04 00:40:25;;;;;;;5.25;4.30;;;;;;;36.66;19.74;94449.78;4994337;28;20042;-66
2021/08/04 00:42:53;;;;;;;6.63;4.88;;;;;;;36.51;19.72;94448.09;4995005;28;20057;-64
2021/08/04 00:45:20;;;;;;;7.32;4.18;;;;;;;36.41;19.38;94452.75;5002145;28;20054;-64
2021/08/04 00:47:47;;;;;;;7.20;4.75;;;;;;;36.38;19.20;94446.25;4977815;28;20477;-62
2021/08/04 00:50:28;;;;;;;6.63;5.03;;;;;;;36.55;19.50;94438.59;5034534;28;20041;-60
2021/08/04 00:52:55;;;;;;;9.13;4.70;;;;;;;36.50;19.54;94444.63;5013358;28;20057;-63
2021/08/04 00:55:26;;;;;;;5.97;4.60;;;;;;;36.41;20.10;94439.91;5012024;28;20054;-66
2021/08/04 00:57:53;;;;;;;6.85;4.95;;;;;;;36.44;19.60;94438.28;5009666;28;20061;-63
2021/08/04 01:00:21;;;;;;;7.82;4.93;;;;;;;36.11;20.03;94444.19;4998270;28;20054;-66
2021/08/04 01:02:57;;;;;;;5.63;4.70;;;;;;;36.08;20.23;94439.66;5008981;28;20066;-64
2021/08/04 01:05:37;;;;;;;9.07;4.82;;;;;;;36.08;20.20;94439.66;5000251;28;20045;-56
2021/08/04 01:08:13;;;;;;;5.45;4.68;;;;;;;36.12;20.58;94434.06;5017049;28;20058;-66
2021/08/04 01:10:49;;;;;;;6.40;4.88;;;;;;;35.76;20.93;94434.69;4997695;28;20038;-66
2021/08/04 01:13:21;;;;;;;6.43;4.43;;;;;;;36.27;20.19;94434.28;4998791;28;20049;-67
2021/08/04 01:16:03;;;;;;;5.60;4.82;;;;;;;36.25;20.13;94440.16;4997482;28;20054;-64
2021/08/04 01:18:41;;;;;;;6.07;4.78;;;;;;;36.11;20.16;94432.56;5000796;28;20368;-66
2021/08/04 01:21:09;;;;;;;8.55;4.63;;;;;;;36.01;20.36;94439.94;4996968;28;20054;-61
2021/08/04 01:24:03;;;;;;;8.32;4.68;;;;;;;35.93;20.45;94444.16;5011650;28;20383;-62
2021/08/04 01:26:36;;;;;;;10.57;4.82;;;;;;;35.70;20.81;94437.25;5016120;28;20456;-66
2021/08/04 01:29:07;;;;;;;6.05;4.18;;;;;;;36.02;20.28;94430.59;5011142;28;20049;-63
2021/08/04 01:31:36;;;;;;;8.35;4.63;;;;;;;35.87;20.65;94435.06;5014628;28;20045;-61
2021/08/04 01:34:04;;;;;;;5.32;4.47;;;;;;;35.89;20.67;94429.91;5002971;28;20058;-64
2021/08/04 01:36:31;;;;;;;5.72;4.65;;;;;;;36.07;20.08;94443.59;4996558;28;20051;-59
2021/08/04 01:39:00;;;;;;;6.53;4.63;;;;;;;35.94;20.30;94434.03;4986861;28;20635;-65
2021/08/04 01:41:28;;;;;;;6.95;5.22;;;;;;;35.50;21.09;94443.03;5012731;28;20057;-62
2021/08/04 01:43:56;;;;;;;7.55;5.05;;;;;;;35.76;20.67;94440.88;4986208;28;20054;-59
2021/08/04 01:46:23;;;;;;;6.13;5.13;;;;;;;35.75;20.64;94449.50;5013138;28;20053;-65
2021/08/04 01:48:52;;;;;;;6.93;5.07;;;;;;;35.86;20.72;94446.38;4998023;28;20065;-63
2021/08/04 01:51:20;;;;;;;7.13;5.05;;;;;;;35.77;20.80;94447.06;5012428;28;20046;-65
2021/08/04 01:53:47;;;;;;;7.20;4.53;;;;;;;35.76;20.84;94448.28;5024773;28;20479;-59
2021/08/04 01:56:15;;;;;;;6.47;4.85;;;;;;;35.49;21.10;94455.09;5036694;28;20049;-61
2021/08/04 01:58:44;;;;;;;8.30;5.18;;;;;;;35.64;20.89;94446.41;5005085;28;20045;-59
2021/08/04 02:01:11;;;;;;;9.00;5.13;;;;;;;35.76;20.89;94451.00;5033011;28;20602;-67
2021/08/04 02:03:39;;;;;;;7.80;5.07;;;;;;;35.61;20.95;94450.00;5019607;28;20271;-67
2021/08/04 02:06:18;;;;;;;6.80;4.60;;;;;;;35.45;20.96;94443.59;5022027;28;20053;-61
2021/08/04 02:09:21;;;;;;;8.73;4.93;;;;;;;35.35;21.36;94450.19;5009396;28;20337;-62
2021/08/04 02:12:02;;;;;;;8.00;5.43;;;;;;;35.53;21.12;94454.97;4993237;28;20049;-66
2021/08/04 02:14:48;;;;;;;6.13;4.90;;;;;;;35.68;20.52;94455.19;5009414;28;20045;-62
2021/08/04 02:17:22;;;;;;;6.18;4.57;;;;;;;35.75;20.56;94457.66;5011517;28;20069;-63
2021/08/04 02:20:08;;;;;;;7.50;4.68;;;;;;;35.69;20.97;94462.16;5015369;28;20050;-61
2021/08/04 02:22:35;;;;;;;6.40;4.70;;;;;;;35.64;20.88;94460.00;5014805;28;20067;-63
2021/08/04 02:25:12;;;;;;;7.13;5.30;;;;;;;35.44;20.98;94458.41;5030291;28;20049;-66
2021/08/04 02:27:39;;;;;;;10.70;5.28;;;;;;;35.81;20.42;94474.88;5025072;28;20042;-61
2021/08/04 02:30:08;;;;;;;6.97;5.07;;;;;;;35.73;20.80;94473.66;5034717;28;20333;-66
2021/08/04 02:32:37;;;;;;;6.75;5.22;;;;;;;35.69;20.74;94470.31;5021654;28;20049;-62
2021/08/04 02:35:05;;;;;;;8.18;5.10;;;;;;;35.77;20.72;94485.16;5027951;28;20356;-67
2021/08/04 02:37:33;;;;;;;5.90;5.20;;;;;;;35.58;21.22;94483.53;4983223;28;20361;-66
2021/08/04 02:40:00;;;;;;;5.95;5.35;;;;;;;35.41;21.27;94480.28;5007565;28;20049;-66
2021/08/04 02:42:28;;;;;;;8.02;5.78;;;;;;;35.63;20.93;94480.22;4999298;28;20046;-64
2021/08/04 02:44:56;;;;;;;9.40;5.95;;;;;;;35.48;20.97;94480.75;5011073;28;20053;-57
2021/08/04 02:47:23;;;;;;;7.22;5.32;;;;;;;35.52;20.88;94465.06;5034427;28;20053;-63
2021/08/04 02:49:52;;;;;;;8.07;5.32;;;;;;;35.49;20.84;94482.28;5001746;28;20045;-64
2021/08/04 02:52:19;;;;;;;6.10;5.07;;;;;;;35.71;20.59;94476.81;5017927;28;20053;-64
2021/08/04 02:54:47;;;;;;;6.43;5.38;;;;;;;35.80;20.34;94484.25;5036061;28;20053;-66
2021/08/04 02:57:14;;;;;;;9.10;5.80;;;;;;;35.75;20.43;94482.13;5009134;28;20047;-66
2021/08/04 02:59:41;;;;;;;6.70;5.80;;;;;;;35.74;20.62;94480.59;5029480;28;20045;-65
2021/08/04 03:02:08;;;;;;;6.93;5.65;;;;;;;35.66;20.57;94485.56;5004750;28;20460;-60
2021/08/04 03:04:36;;;;;;;6.25;5.15;;;;;;;35.53;20.73;94488.34;5032020;28;20046;-66
2021/08/04 03:07:03;;;;;;;7.68;4.97;;;;;;;35.52;20.43;94475.19;4998561;28;20050;-66
2021/08/04 03:09:30;;;;;;;8.40;5.88;;;;;;;35.93;20.14;94487.69;5017489;28;20049;-63
2021/08/04 03:11:58;;;;;;;7.95;6.00;;;;;;;35.66;20.19;94477.41;5015987;28;20376;-66
2021/08/04 03:14:25;;;;;;;8.55;5.32;;;;;;;35.72;19.81;94480.28;5022017;28;20056;-66
2021/08/04 03:16:52;;;;;;;7.63;5.57;;;;;;;35.83;19.88;94489.56;5010972;28;20057;-62
2021/08/04 03:19:19;;;;;;;6.93;5.13;;;;;;;35.73;20.18;94489.97;5007669;28;20117;-65
2021/08/04 03:21:46;;;;;;;10.95;6.22;;;;;;;35.83;20.02;94483.38;5026750;28;20046;-65
2021/08/04 03:24:14;;;;;;;8.35;5.55;;;;;;;35.53;20.47;94498.44;5028742;28;20045;-65
2021/08/04 03:26:41;;;;;;;9.55;5.68;;;;;;;35.63;20.27;94496.53;5035172;28;20041;-62
2021/08/04 03:29:08;;;;;;;10.90;5.63;;;;;;;35.56;20.78;94492.13;5034249;28;20037;-62
2021/08/04 03:31:35;;;;;;;8.43;5.50;;;;;;;35.50;20.98;94486.50;5029383;28;20045;-64
2021/08/04 03:34:02;;;;;;;10.02;5.75;;;;;;;35.84;20.56;94490.34;5032614;28;20056;-62
2021/08/04 03:36:29;;;;;;;10.35;5.70;;;;;;;35.84;20.35;94484.91;5015646;28;20064;-64
2021/08/04 03:38:56;;;;;;;9.07;5.53;;;;;;;35.77;20.76;94490.59;5014531;28;20046;-65
2021/08/04 03:41:23;;;;;;;8.82;5.72;;;;;;;35.45;21.20;94484.38;5022844;28;20052;-61
2021/08/04 03:43:50;;;;;;;7.00;5.35;;;;;;;35.60;21.05;94492.75;5021372;28;20041;-66
2021/08/04 03:46:17;;;;;;;7.10;5.30;;;;;;;35.52;20.84;94486.81;5034465;28;20079;-67
2021/08/04 03:48:44;;;;;;;9.90;5.97;;;;;;;35.44;20.86;94491.00;5019414;28;20057;-68
2021/08/04 03:51:12;;;;;;;6.10;5.15;;;;;;;35.47;21.16;94501.00;5025683;28;20041;-63
2021/08/04 03:53:39;;;;;;;7.25;5.15;;;;;;;35.47;20.99;94500.22;5030386;28;20072;-65
2021/08/04 03:56:06;;;;;;;7.13;5.32;;;;;;;35.61;21.04;94498.94;5026457;28;20053;-62
2021/08/04 03:58:33;;;;;;;10.25;5.80;;;;;;;35.70;20.94;94496.28;5021936;28;20060;-66
2021/08/04 04:01:00;;;;;;;8.13;5.78;;;;;;;35.86;20.82;94498.81;5024081;28;20042;-64
2021/08/04 04:03:27;;;;;;;10.40;5.82;;;;;;;35.95;20.91;94493.41;5027811;28;20041;-65
2021/08/04 04:05:54;;;;;;;8.52;5.95;;;;;;;35.52;21.41;94502.38;5017723;28;20511;-65
2021/08/04 04:08:21;;;;;;;9.23;5.82;;;;;;;35.77;21.52;94501.47;5015201;28;20436;-65
2021/08/04 04:10:48;;;;;;;7.30;6.10;;;;;;;35.64;21.51;94503.47;5014688;28;20046;-59
2021/08/04 04:13:15;;;;;;;8.23;6.28;;;;;;;35.58;21.74;94516.91;5026752;28;20054;-63
2021/08/04 04:15:43;;;;;;;8.95;6.15;;;;;;;35.38;21.90;94519.19;5033944;28;20049;-65
2021/08/04 04:18:10;;;;;;;8.35;6.07;;;;;;;35.54;21.73;94519.75;5021016;28;20046;-60
2021/08/04 04:20:37;;;;;;;7.20;6.00;;;;;;;35.15;22.53;94517.66;5027217;28;20060;-61
2021/08/04 04:23:04;;;;;;;18.17;6.25;;;;;;;35.03;22.94;94513.75;5032698;28;20045;-65
2021/08/04 04:25:31;;;;;;;13.15;6.15;;;;;;;35.01;22.83;94524.31;5031086;28;20057;-46
2021/08/04 04:27:58;;;;;;;9.43;6.43;;;;;;;34.93;22.91;94523.81;5028068;28;20045;-50
2021/08/04 04:30:25;;;;;;;8.82;6.07;;;;;;;34.83;22.88;94516.72;5026746;28;20054;-54
2021/08/04 04:32:52;;;;;;;13.13;6.32;;;;;;;35.27;22.80;94524.97;5022145;28;20041;-58
2021/08/04 04:35:19;;;;;;;11.75;6.28;;;;;;;35.35;22.87;94525.50;5031617;28;20046;-54
2021/08/04 04:37:46;;;;;;;11.70;6.35;;;;;;;35.18;22.88;94533.06;5033581;28;20380;-62
2021/08/04 04:40:13;;;;;;;11.52;6.32;;;;;;;35.22;23.31;94534.44;5034627;28;20053;-69
2021/08/04 04:42:40;;;;;;;12.45;6.38;;;;;;;35.57;22.18;94534.41;5031652;28;20456;-59
2021/08/04 04:45:08;;;;;;;17.50;6.75;;;;;;;35.39;22.23;94535.03;5032070;28;20368;-60
2021/08/04 04:47:35;;;;;;;9.35;6.60;;;;;;;36.48;20.87;94536.88;5014480;28;20045;-59
2021/08/04 04:50:03;;;;;;;10.95;5.80;;;;;;;37.84;20.20;94542.88;5014816;28;20076;-53
2021/08/04 04:52:30;;;;;;;6.82;5.22;;;;;;;37.96;20.27;94545.41;5019568;28;20053;-61
2021/08/04 04:54:57;;;;;;;9.20;5.90;;;;;;;38.15;19.66;94539.91;5026094;28;20444;-59
2021/08/04 04:57:24;;;;;;;9.55;6.45;;;;;;;38.17;19.71;94542.97;5034260;28;20049;-55
2021/08/04 04:59:51;;;;;;;8.95;6.22;;;;;;;38.37;19.21;94543.19;5033213;28;20048;-50
2021/08/04 05:02:18;;;;;;;10.45;6.10;;;;;;;36.36;21.36;94554.06;5015098;28;20061;-54
2021/08/04 05:04:45;;;;;;;8.60;6.28;;;;;;;36.20;21.55;94543.41;5030278;28;20049;-53
2021/08/04 05:07:12;;;;;;;11.10;7.07;;;;;;;36.07;21.95;94557.84;5014540;28;20045;-56
2021/08/04 05:09:39;;;;;;;9.60;6.88;;;;;;;36.38;21.48;94557.84;5014490;28;20054;-51
2021/08/04 05:12:07;;;;;;;8.98;7.22;;;;;;;36.26;21.26;94558.69;5013940;28;20053;-54
2021/08/04 05:14:34;;;;;;;10.10;6.90;;;;;;;36.20;20.85;94560.47;5033431;28;20052;-53
2021/08/04 05:17:01;;;;;;;10.85;7.00;;;;;;;36.34;21.06;94567.34;5034172;28;20045;-52
2021/08/04 05:19:28;;;;;;;15.63;7.38;;;;;;;36.25;21.17;94570.78;5034248;28;20474;-56
2021/08/04 05:21:55;;;;;;;10.85;7.57;;;;;;;36.40;21.07;94574.47;5033387;28;20060;-56
2021/08/04 05:24:22;;;;;;;10.38;7.07;;;;;;;36.43;21.11;94578.28;5033560;28;20053;-54
2021/08/04 05:26:49;;;;;;;16.17;7.18;;;;;;;36.49;21.02;94587.38;5033454;28;20053;-55
2021/08/04 05:29:16;;;;;;;8.10;6.45;;;;;;;36.68;20.73;94586.22;5034113;28;20045;-57
2021/08/04 05:31:43;;;;;;;11.50;6.88;;;;;;;36.66;20.62;94583.19;5033833;28;20041;-55
2021/08/04 05:34:10;;;;;;;11.82;6.28;;;;;;;36.98;20.66;94589.38;5033461;28;20056;-52
2021/08/04 05:36:37;;;;;;;11.63;7.00;;;;;;;36.91;20.69;94589.63;5034350;28;20076;-55
2021/08/04 05:39:04;;;;;;;11.07;6.65;;;;;;;37.06;20.38;94587.84;5034401;28;20045;-54
2021/08/04 05:41:32;;;;;;;11.10;6.60;;;;;;;37.01;20.57;94588.47;5033011;28;20056;-52
2021/08/04 05:43:59;;;;;;;13.25;7.18;;;;;;;37.05;20.08;94580.88;5033607;28;20489;-55
2021/08/04 05:46:26;;;;;;;15.85;6.68;;;;;;;37.32;19.93;94589.13;5034654;28;20053;-51
2021/08/04 05:48:53;;;;;;;11.50;6.05;;;;;;;37.46;20.35;94595.91;5020084;28;20049;-56
2021/08/04 05:51:20;;;;;;;9.95;5.97;;;;;;;37.37;20.47;94598.66;5036563;28;20041;-48
2021/08/04 05:53:47;;;;;;;8.40;6.50;;;;;;;37.61;20.32;94596.06;5028098;28;20046;-54
2021/08/04 05:56:15;;;;;;;8.32;6.25;;;;;;;37.48;19.79;94598.97;5034105;28;20049;-54
2021/08/04 05:58:42;;;;;;;9.98;6.43;;;;;;;37.90;19.87;94601.81;5036440;28;20060;-51
2021/08/04 06:01:09;;;;;;;8.75;5.85;;;;;;;38.06;19.26;94608.94;5037100;28;20048;-56
2021/08/04 06:03:36;;;;;;;11.88;6.88;;;;;;;38.11;19.37;94607.53;5036149;28;20045;-56
2021/08/04 06:06:03;;;;;;;8.30;6.10;;;;;;;38.07;19.44;94604.22;5036926;28;20368;-52
2021/08/04 06:08:30;;;;;;;10.63;5.95;;;;;;;38.06;19.18;94606.19;5036425;28;20056;-53
2021/08/04 06:10:58;;;;;;;9.30;6.82;;;;;;;37.97;19.50;94606.97;5037007;28;20053;-55
2021/08/04 06:13:25;;;;;;;9.45;6.47;;;;;;;37.91;19.26;94608.78;5036363;28;20440;-58
2021/08/04 06:15:53;;;;;;;9.88;6.28;;;;;;;38.06;19.11;94608.16;5035858;28;20052;-54
2021/08/04 06:18:20;;;;;;;13.10;6.30;;;;;;;38.21;19.58;94607.06;5036966;28;20487;-58
2021/08/04 06:20:48;;;;;;;11.02;6.00;;;;;;;38.16;19.30;94606.91;5031021;28;20445;-55
2021/08/04 06:23:15;;;;;;;13.75;6.00;;;;;;;38.40;18.84;94605.06;5028434;28;20483;-56
2021/08/04 06:25:43;;;;;;;10.00;5.90;;;;;;;38.53;19.38;94600.16;5035648;28;20072;-59
2021/08/04 06:28:10;;;;;;;8.35;6.55;;;;;;;38.23;19.41;94607.38;5035866;28;20049;-51
2021/08/04 06:30:37;;;;;;;11.00;6.50;;;;;;;38.51;19.10;94605.31;5036086;28;20049;-53
2021/08/04 06:33:04;;;;;;;10.00;5.78;;;;;;;38.74;18.80;94611.31;5035418;28;20079;-54
2021/08/04 06:35:31;;;;;;;10.98;6.13;;;;;;;38.91;18.71;94609.69;5035948;28;20053;-49
2021/08/04 06:37:58;;;;;;;10.38;6.57;;;;;;;39.02;18.71;94615.38;5036469;28;20048;-57
2021/08/04 06:40:27;;;;;;;12.32;6.25;;;;;;;39.26;18.26;94609.94;5034091;28;20049;-58
2021/08/04 06:42:54;;;;;;;9.70;6.10;;;;;;;39.30;18.21;94612.50;5019495;28;20049;-55
2021/08/04 06:45:21;;;;;;;11.68;6.47;;;;;;;39.15;18.12;94607.00;5036477;28;20456;-51
2021/08/04 06:47:48;;;;;;;12.23;6.38;;;;;;;39.60;17.63;94611.41;5036091;28;20056;-54
2021/08/04 06:50:15;;;;;;;10.05;6.30;;;;;;;39.62;17.65;94610.94;5035664;28;20056;-55
2021/08/04 06:52:42;;;;;;;10.68;6.40;;;;;;;39.82;17.41;94602.06;5029715;28;20042;-55
2021/08/04 06:55:10;;;;;;;9.00;6.10;;;;;;;40.05;17.57;94598.53;5035836;28;20049;-57
2021/08/04 06:57:37;;;;;;;9.80;6.38;;;;;;;40.19;17.32;94603.25;5035336;28;20048;-58
2021/08/04 07:00:05;;;;;;;9.77;6.60;;;;;;;40.26;17.41;94607.59;5021820;28;20046;-53
2021/08/04 07:02:32;;;;;;;10.43;5.75;;;;;;;40.48;16.88;94604.47;5016374;28;20041;-53
2021/08/04 07:04:59;;;;;;;12.38;5.85;;;;;;;40.35;17.28;94602.03;5035113;28;20045;-56
2021/08/04 07:07:26;;;;;;;13.18;6.63;;;;;;;40.55;16.84;94604.09;5035082;28;20049;-56
2021/08/04 07:09:53;;;;;;;10.35;5.90;;;;;;;40.69;16.41;94611.53;5035934;28;20057;-55
2021/08/04 07:12:20;;;;;;;10.18;6.38;;;;;;;40.88;16.31;94607.34;5035822;28;20046;-57
2021/08/04 07:14:48;;;;;;;8.38;6.30;;;;;;;40.81;16.14;94607.72;5035699;28;20371;-59
2021/08/04 07:17:15;;;;;;;7.25;6.30;;;;;;;40.66;16.11;94605.00;5035566;28;20048;-54
2021/08/04 07:19:42;;;;;;;11.32;5.88;;;;;;;40.74;16.32;94605.38;5025103;28;20460;-55
2021/08/04 07:22:09;;;;;;;9.70;6.47;;;;;;;41.14;16.15;94601.19;5018251;28;20060;-59
2021/08/04 07:24:37;;;;;;;12.00;6.50;;;;;;;41.46;15.75;94594.63;5035503;28;20379;-52
2021/08/04 07:27:13;;;;;;;11.38;6.45;;;;;;;41.35;16.11;94605.47;5035365;28;20077;-55
2021/08/04 07:29:40;;;;;;;9.90;6.82;;;;;;;41.47;15.77;94601.63;5035107;28;20057;-57
2021/08/04 07:32:07;;;;;;;10.52;6.47;;;;;;;41.64;15.96;94592.81;5032661;28;20092;-54
2021/08/04 07:34:34;;;;;;;11.95;6.35;;;;;;;42.04;16.02;94592.75;5030694;28;20440;-52
2021/08/04 07:37:02;;;;;;;14.80;6.38;;;;;;;42.00;15.60;94592.19;5035187;28;20049;-54
2021/08/04 07:39:29;;;;;;;12.13;6.57;;;;;;;41.93;15.44;94598.13;5035530;28;20049;-54
2021/08/04 07:41:56;;;;;;;8.25;4.97;;;;;;;42.31;15.35;94605.22;5035044;28;20479;-53
2021/08/04 07:44:24;;;;;;;10.90;6.13;;;;;;;42.17;15.66;94595.88;5029091;28;20057;-53
2021/08/04 07:46:51;;;;;;;11.30;5.80;;;;;;;42.11;14.98;94597.81;5035007;28;20053;-53
2021/08/04 07:49:18;;;;;;;11.63;6.13;;;;;;;42.60;15.15;94590.47;5035226;28;20046;-52
2021/08/04 07:51:45;;;;;;;10.75;6.25;;;;;;;42.57;15.15;94587.94;5034301;28;20041;-54
2021/08/04 07:54:12;;;;;;;11.25;6.38;;;;;;;42.18;15.37;94591.91;5035229;28;20053;-53
2021/08/04 07:56:39;;;;;;;10.02;5.82;;;;;;;42.35;14.70;94583.78;5034931;28;20052;-58
2021/08/04 07:59:06;;;;;;;9.30;5.85;;;;;;;42.29;14.77;94591.22;5034477;28;20045;-57
2021/08/04 08:01:33;;;;;;;15.05;6.10;;;;;;;42.50;14.53;94583.66;5034023;28;20049;-52
2021/08/04 08:04:00;;;;;;;9.23;5.43;;;;;;;42.45;14.31;94581.63;5033849;28;20052;-54
2021/08/04 08:06:27;;;;;;;9.73;5.32;;;;;;;42.35;14.11;94575.53;5034665;28;20041;-53
2021/08/04 08:08:54;;;;;;;12.30;6.15;;;;;;;42.29;14.60;94576.75;5034116;28;20057;-52
2021/08/04 08:11:21;;;;;;;11.43;5.63;;;;;;;42.38;14.63;94588.28;5017451;28;20082;-55
2021/08/04 08:13:48;;;;;;;11.55;5.68;;;;;;;42.65;14.01;94578.75;5034411;28;20052;-53
2021/08/04 08:16:16;;;;;;;9.73;5.13;;;;;;;42.66;14.11;94585.75;5034723;28;20049;-57
2021/08/04 08:18:43;;;;;;;11.40;6.20;;;;;;;42.85;13.80;94574.38;5033892;28;20056;-56
2021/08/04 08:21:10;;;;;;;9.15;5.32;;;;;;;42.83;13.51;94577.63;5033995;28;20041;-55
2021/08/04 08:23:37;;;;;;;11.02;5.70;;;;;;;42.84;13.87;94575.63;5033511;28;20045;-53
2021/08/04 08:26:04;;;;;;;30.17;27.27;;;;;;;43.16;13.42;94577.03;5033825;28;20049;-56
2021/08/04 08:28:31;;;;;;;17.67;14.32;;;;;;;43.17;13.63;94573.06;5018802;28;20072;-52
2021/08/04 08:30:58;;;;;;;11.88;6.93;;;;;;;43.27;13.61;94571.59;5031917;28;20042;-55
2021/08/04 08:33:25;;;;;;;14.63;6.00;;;;;;;43.48;13.38;94574.97;5033765;28;20045;-53
2021/08/04 08:35:52;;;;;;;9.73;5.57;;;;;;;43.52;13.49;94563.72;5034438;28;20095;-58
2021/08/04 08:38:19;;;;;;;10.57;5.88;;;;;;;43.60;12.84;94559.22;5034421;28;20049;-55
2021/08/04 08:40:47;;;;;;;7.93;5.65;;;;;;;43.57;13.12;94566.47;5033513;28;20046;-53
2021/08/04 08:43:17;;;;;;;8.52;5.63;;;;;;;43.52;13.09;94558.19;5016147;28;20057;-55
2021/08/04 08:45:46;;;;;;;11.32;5.63;;;;;;;43.44;13.34;94551.66;5033295;28;20045;-54
2021/08/04 08:48:17;;;;;;;9.50;5.53;;;;;;;43.72;13.17;94544.25;5034242;28;20049;-53
2021/08/04 08:50:49;;;;;;;9.32;5.35;;;;;;;43.65;13.07;94547.47;5033444;28;20052;-54
2021/08/04 08:53:16;;;;;;;10.10;5.57;;;;;;;43.60;12.86;94537.19;5034005;28;20053;-53
2021/08/04 08:55:43;;;;;;;13.70;5.70;;;;;;;43.49;13.09;94540.69;5034509;28;20443;-56
2021/08/04 08:58:10;;;;;;;10.55;5.25;;;;;;;43.47;13.25;94539.69;5016973;28;20041;-55
2021/08/04 09:00:37;;;;;;;15.85;5.43;;;;;;;43.58;13.04;94534.19;5033913;28;20349;-54
2021/08/04 09:03:04;;;;;;;10.90;5.50;;;;;;;43.74;13.12;94530.75;5033464;28;20054;-56
2021/08/04 09:05:57;;;;;;;10.80;5.45;;;;;;;44.03;12.62;94534.28;5020610;28;20065;-53
2021/08/04 09:08:26;;;;;;;10.57;4.80;;;;;;;43.80;12.64;94517.75;5033820;28;20045;-54
2021/08/04 09:10:54;;;;;;;8.95;4.57;;;;;;;43.85;13.03;94528.00;5033881;28;20060;-55
2021/08/04 09:13:31;;;;;;;31.58;28.42;;;;;;;43.84;12.89;94531.25;5034310;28;20052;-57
2021/08/04 09:16:07;;;;;;;12.13;7.68;;;;;;;43.42;12.61;94526.66;5033107;28;20049;-60
2021/08/04 09:18:47;;;;;;;10.02;5.43;;;;;;;43.30;12.61;94525.88;5034316;28;20041;-57
2021/08/04 09:21:16;;;;;;;10.75;5.32;;;;;;;43.57;12.59;94527.19;5035308;28;20045;-58
2021/08/04 09:23:51;;;;;;;9.40;5.65;;;;;;;43.82;12.58;94526.25;5036483;28;20049;-58
2021/08/04 09:26:24;;;;;;;11.63;5.70;;;;;;;44.04;12.68;94522.75;5036960;28;20044;-58
2021/08/04 09:29:03;;;;;;;9.50;4.72;;;;;;;44.03;12.46;94520.50;5037178;28;20045;-58
2021/08/04 09:31:46;;;;;;;12.32;5.07;;;;;;;43.87;12.88;94508.97;5036764;28;20440;-57
2021/08/04 09:34:35;;;;;;;10.32;4.75;;;;;;;43.99;12.32;94513.25;5037813;28;20048;-57
2021/08/04 09:37:11;;;;;;;8.57;4.95;;;;;;;43.64;12.88;94515.69;5037527;28;20474;-53
2021/08/04 09:39:40;;;;;;;10.07;5.47;;;;;;;43.69;12.64;94512.22;5036831;28;20360;-59
2021/08/04 09:42:08;;;;;;;10.10;4.85;;;;;;;43.88;12.74;94513.22;5037325;28;20065;-54
2021/08/04 09:44:50;;;;;;;9.90;4.50;;;;;;;43.79;12.92;94504.47;5036889;28;20467;-59
2021/08/04 09:47:18;;;;;;;11.85;4.97;;;;;;;43.66;12.73;94504.94;5037290;28;20452;-55
2021/08/04 09:50:05;;;;;;;8.10;4.38;;;;;;;43.68;12.68;94500.44;5037290;28;20056;-57
2021/08/04 09:52:32;;;;;;;8.07;4.70;;;;;;;43.73;12.60;94501.72;5035627;28;20061;-54
2021/08/04 09:55:17;;;;;;;7.70;4.78;;;;;;;43.79;12.96;94505.22;5020323;28;20364;-60
2021/08/04 09:57:50;;;;;;;12.15;4.97;;;;;;;43.96;12.57;94486.69;5037034;28;20360;-55
2021/08/04 10:00:19;;;;;;;8.68;4.90;;;;;;;43.94;12.58;94499.47;5036354;28;20050;-60
2021/08/04 10:02:46;;;;;;;10.95;4.55;;;;;;;43.99;12.67;94496.72;5037041;28;20046;-51
2021/08/04 10:05:24;;;;;;;9.50;4.60;;;;;;;44.13;12.66;94494.97;5037275;28;20045;-56
2021/08/04 10:08:00;;;;;;;11.05;4.47;;;;;;;44.02;12.19;94499.72;5036738;28;20056;-57
2021/08/04 10:10:29;;;;;;;7.88;4.25;;;;;;;44.42;12.15;94488.16;5036707;28;20056;-59
2021/08/04 10:12:56;;;;;;;9.18;4.40;;;;;;;44.46;11.95;94485.94;5035816;28;20060;-58
2021/08/04 10:15:23;;;;;;;9.60;4.13;;;;;;;44.52;12.31;94481.16;5037017;28;20051;-55
2021/08/04 10:17:51;;;;;;;8.75;4.22;;;;;;;44.50;12.02;94483.66;5032477;28;20068;-59
2021/08/04 10:20:18;;;;;;;8.63;4.13;;;;;;;44.33;11.80;94476.69;4999945;28;20769;-55
2021/08/04 10:22:46;;;;;;;9.98;7.93;;;;;;;44.02;12.08;94478.44;5025119;28;20045;-57
2021/08/04 10:25:13;;;;;;;10.65;5.57;;;;;;;44.14;11.71;94473.69;5019546;28;20486;-57
2021/08/04 10:27:41;;;;;;;9.07;3.97;;;;;;;44.14;11.74;94470.94;5018246;28;20460;-58
2021/08/04 10:30:08;;;;;;;8.32;4.47;;;;;;;43.92;12.25;94479.94;5018499;28;20446;-56
2021/08/04 10:32:35;;;;;;;8.20;3.90;;;;;;;43.91;11.99;94472.94;5018248;28;20053;-58
2021/08/04 10:35:02;;;;;;;10.82;4.20;;;;;;;44.02;11.95;94472.19;5036326;28;20053;-55
2021/08/04 10:37:32;;;;;;;9.77;5.10;;;;;;;44.21;13.65;94467.66;5036384;28;20041;-56
2021/08/04 10:39:59;;;;;;;13.25;4.75;;;;;;;43.31;14.03;94462.13;5017340;28;20049;-51
2021/08/04 10:42:43;;;;;;;8.77;4.47;;;;;;;43.58;13.12;94462.66;5032571;28;20452;-56
2021/08/04 10:45:22;;;;;;;10.45;3.97;;;;;;;43.69;12.22;94451.66;5036571;28;20438;-54
2021/08/04 10:47:56;;;;;;;10.55;4.25;;;;;;;43.60;12.72;94454.66;5036209;28;20053;-54
2021/08/04 10:50:23;;;;;;;9.60;3.80;;;;;;;43.74;12.51;94453.69;5036039;28;20349;-54
2021/08/04 10:53:01;;;;;;;9.05;3.70;;;;;;;43.72;12.69;94453.41;5035577;28;20053;-59
2021/08/04 10:55:55;;;;;;;7.80;3.60;;;;;;;43.97;12.31;94452.41;5036168;28;20057;-55
2021/08/04 10:58:24;;;;;;;8.13;4.13;;;;;;;43.88;12.65;94449.91;5035395;28;20056;-58
2021/08/04 11:00:52;;;;;;;7.15;4.38;;;;;;;43.88;12.11;94440.91;5018303;28;20056;-59
2021/08/04 11:03:40;;;;;;;9.63;4.22;;;;;;;43.60;12.28;94438.88;5035861;28;20159;-53
2021/08/04 11:06:10;;;;;;;7.57;4.00;;;;;;;43.56;12.42;94432.13;5015920;28;20052;-59
2021/08/04 11:08:39;;;;;;;9.63;3.80;;;;;;;43.39;11.87;94432.88;5015934;28;20352;-56
2021/08/04 11:11:07;;;;;;;7.10;3.60;;;;;;;43.59;12.00;94447.66;5027051;28;20045;-58
2021/08/04 11:13:44;;;;;;;8.77;3.45;;;;;;;43.96;11.86;94437.13;5034111;28;20048;-51
2021/08/04 11:16:31;;;;;;;7.38;4.30;;;;;;;44.34;12.38;94437.59;4998460;28;20049;-57
2021/08/04 11:19:10;;;;;;;6.20;3.75;;;;;;;44.35;12.03;94428.09;5014831;28;20042;-58
2021/08/04 11:21:38;;;;;;;10.18;3.95;;;;;;;44.08;11.81;94423.41;5030702;28;20053;-56
2021/08/04 11:24:06;;;;;;;6.70;3.05;;;;;;;44.21;12.01;94429.09;5035108;28;20054;-54
2021/08/04 11:26:39;;;;;;;8.13;3.67;;;;;;;44.14;11.80;94430.38;5035689;28;20049;-54
2021/08/04 11:29:08;;;;;;;7.20;3.58;;;;;;;44.19;12.34;94420.59;5035678;28;20049;-60
2021/08/04 11:31:35;;;;;;;9.48;4.22;;;;;;;44.31;11.94;94422.09;5035030;28;20056;-54
2021/08/04 11:34:29;;;;;;;17.35;10.95;;;;;;;43.99;12.12;94436.16;5017345;28;20045;-59
2021/08/04 11:37:00;;;;;;;10.50;6.13;;;;;;;44.12;11.97;94432.16;5034871;28;20053;-54
2021/08/04 11:39:28;;;;;;;8.18;4.10;;;;;;;44.23;12.18;94426.59;5034021;28;20065;-58